createdAt,value
2022-11-18T07:48:35.671Z,13.50
2022-11-18T07:51:02.497Z,13.60
2022-11-18T07:53:33.666Z,13.60
2022-11-18T07:56:00.914Z,13.60
2022-11-18T07:58:28.254Z,13.50
2022-11-18T08:00:55.303Z,13.60
2022-11-18T08:03:28.806Z,13.70
2022-11-18T08:06:00.046Z,13.60
2022-11-18T08:08:27.150Z,13.70
2022-11-18T08:10:58.659Z,13.70
2022-11-18T08:13:26.478Z,13.80
2022-11-18T08:15:54.551Z,13.80
2022-11-18T08:18:24.761Z,13.90
2022-11-18T08:20:51.962Z,13.90
2022-11-18T08:23:19.101Z,14.00
2022-11-18T08:25:46.945Z,14.10
2022-11-18T08:28:15.066Z,14.20
2022-11-18T08:30:42.091Z,14.10
2022-11-18T08:33:08.957Z,14.20
2022-11-18T08:35:35.967Z,14.20
2022-11-18T08:38:02.912Z,14.20
2022-11-18T08:40:29.789Z,14.20
2022-11-18T08:42:56.662Z,14.20
2022-11-18T08:45:23.646Z,14.30
2022-11-18T08:47:50.562Z,14.20
2022-11-18T08:50:17.652Z,14.30
2022-11-18T08:52:44.465Z,14.30
2022-11-18T08:55:11.380Z,14.40
2022-11-18T08:57:38.117Z,14.40
2022-11-18T09:00:06.049Z,14.50
2022-11-18T09:02:35.546Z,14.50
2022-11-18T09:05:02.485Z,14.50
2022-11-18T09:07:29.381Z,14.50
2022-11-18T09:09:56.492Z,14.40
2022-11-18T09:12:26.365Z,14.40
2022-11-18T09:15:12.844Z,14.30
2022-11-18T09:17:40.138Z,14.30
2022-11-18T09:20:07.610Z,14.40
2022-11-18T09:22:37.703Z,14.30
2022-11-18T09:25:04.845Z,14.40
2022-11-18T09:27:34.338Z,14.40
2022-11-18T09:30:01.682Z,14.50
2022-11-18T09:32:28.546Z,14.40
2022-11-18T09:34:55.404Z,14.40
2022-11-18T09:37:22.625Z,14.40
2022-11-18T09:39:49.693Z,14.40
2022-11-18T09:42:54.907Z,14.50
2022-11-18T09:45:52.315Z,14.50
2022-11-18T09:48:41.659Z,14.60
2022-11-18T09:51:11.266Z,14.60
2022-11-18T09:53:41.386Z,14.60
2022-11-18T09:56:15.001Z,14.70
2022-11-18T09:58:42.917Z,14.70
2022-11-18T10:01:20.380Z,14.70
2022-11-18T10:03:47.531Z,14.80
2022-11-18T10:06:29.480Z,14.70
2022-11-18T10:09:08.127Z,14.80
2022-11-18T10:11:57.596Z,14.90
2022-11-18T10:14:59.987Z,15.00
2022-11-18T10:17:52.344Z,15.10
2022-11-18T10:20:23.528Z,15.10
2022-11-18T10:23:11.184Z,15.00
2022-11-18T10:25:38.000Z,15.00
2022-11-18T10:28:21.990Z,15.00
2022-11-18T10:30:49.275Z,15.00
2022-11-18T10:33:22.260Z,15.10
2022-11-18T10:35:49.576Z,15.10
2022-11-18T10:38:21.088Z,15.10
2022-11-18T10:40:50.898Z,15.00
2022-11-18T10:43:52.878Z,15.00
2022-11-18T10:46:30.118Z,15.00
2022-11-18T10:49:09.194Z,15.10
2022-11-18T10:51:41.851Z,15.10
2022-11-18T10:54:09.818Z,15.20
2022-11-18T10:56:46.957Z,15.20
2022-11-18T10:59:25.146Z,15.20
2022-11-18T11:02:19.425Z,15.10
2022-11-18T11:04:48.698Z,15.10
2022-11-18T11:07:32.571Z,15.20
2022-11-18T11:10:23.581Z,15.30
2022-11-18T11:12:57.842Z,15.30
2022-11-18T11:15:32.275Z,15.30
2022-11-18T11:18:21.682Z,15.30
2022-11-18T11:20:48.696Z,15.30
2022-11-18T11:23:22.021Z,15.40
2022-11-18T11:29:01.839Z,15.30
2022-11-18T11:31:56.646Z,15.20
2022-11-18T11:34:36.800Z,15.20
2022-11-18T11:37:17.172Z,15.20
2022-11-18T11:39:57.821Z,15.20
2022-11-18T11:43:03.362Z,15.20
2022-11-18T11:45:33.294Z,15.20
2022-11-18T11:48:06.032Z,15.30
2022-11-18T11:51:01.921Z,15.30
2022-11-18T11:54:15.152Z,15.30
2022-11-18T11:56:56.112Z,15.30
2022-11-18T11:59:28.350Z,15.50
2022-11-18T12:02:03.034Z,15.50
2022-11-18T12:04:40.183Z,15.40
2022-11-18T12:07:24.787Z,15.50
2022-11-18T12:09:51.745Z,15.50
2022-11-18T12:12:56.206Z,15.50
2022-11-18T12:15:53.858Z,15.60
2022-11-18T12:18:21.146Z,15.50
2022-11-18T12:20:50.697Z,15.60
2022-11-18T12:23:26.391Z,15.60
2022-11-18T12:25:58.617Z,15.60
2022-11-18T12:28:41.687Z,15.70
2022-11-18T12:31:20.731Z,15.70
2022-11-18T12:33:54.913Z,15.70
2022-11-18T12:36:38.589Z,15.70
2022-11-18T12:39:24.322Z,15.70
2022-11-18T12:42:19.866Z,15.80
2022-11-18T12:44:49.389Z,15.80
2022-11-18T12:47:36.343Z,15.80
2022-11-18T12:50:03.323Z,15.80
2022-11-18T12:52:30.282Z,15.80
2022-11-18T12:55:03.765Z,15.80
2022-11-18T12:57:33.716Z,15.80
2022-11-18T13:00:22.302Z,15.80
2022-11-18T13:02:54.730Z,15.90
2022-11-18T13:05:26.968Z,15.80
2022-11-18T13:08:13.173Z,15.80
2022-11-18T13:11:44.816Z,15.80
2022-11-18T13:14:46.391Z,15.90
2022-11-18T13:17:51.065Z,15.90
2022-11-18T13:20:35.850Z,15.90
2022-11-18T13:23:33.377Z,15.90
2022-11-18T13:26:06.922Z,15.90
2022-11-18T13:28:54.340Z,16.00
2022-11-18T13:31:31.920Z,15.90
2022-11-18T13:34:23.522Z,15.90
2022-11-18T13:36:52.192Z,15.90
2022-11-18T13:39:25.681Z,15.90
2022-11-18T13:42:14.404Z,16.00
2022-11-18T13:45:00.881Z,16.00
2022-11-18T13:47:40.760Z,16.00
2022-11-18T13:50:07.693Z,16.00
2022-11-18T13:52:51.025Z,16.00
2022-11-18T13:55:20.583Z,16.00
2022-11-18T13:57:51.082Z,16.00
2022-11-18T14:00:31.677Z,16.00
2022-11-18T14:03:04.079Z,16.00
2022-11-18T14:05:31.086Z,16.00
2022-11-18T14:08:02.492Z,16.00
2022-11-18T14:10:39.069Z,16.00
2022-11-18T14:13:25.871Z,16.00
2022-11-18T14:16:18.685Z,16.00
2022-11-18T14:18:47.577Z,16.00
2022-11-18T14:21:26.083Z,16.00
2022-11-18T14:23:52.950Z,15.90
2022-11-18T14:26:34.667Z,15.90
2022-11-18T14:29:14.747Z,15.90
2022-11-18T14:31:42.705Z,15.90
2022-11-18T14:34:18.356Z,15.90
2022-11-18T14:36:46.089Z,15.80
2022-11-18T14:39:31.785Z,15.80
2022-11-18T14:41:59.587Z,15.70
2022-11-18T14:44:28.072Z,15.70
2022-11-18T14:46:57.711Z,15.70
2022-11-18T14:49:26.294Z,15.70
2022-11-18T14:51:54.840Z,15.60
2022-11-18T14:54:26.758Z,15.60
2022-11-18T14:57:18.876Z,15.60
2022-11-18T14:59:45.763Z,15.50
2022-11-18T15:02:17.296Z,15.50
2022-11-18T15:04:46.551Z,15.50
2022-11-18T15:07:18.506Z,15.50
2022-11-18T15:09:49.941Z,15.50
2022-11-18T15:12:17.729Z,15.40
2022-11-18T15:14:44.741Z,15.40
2022-11-18T15:17:12.708Z,15.30
2022-11-18T15:19:40.849Z,15.30
2022-11-18T15:22:08.253Z,15.30
2022-11-18T15:24:35.191Z,15.30
2022-11-18T15:27:05.338Z,15.30
2022-11-18T15:29:32.660Z,15.30
2022-11-18T15:32:00.142Z,15.30
2022-11-18T15:34:27.075Z,15.20
2022-11-18T15:36:53.955Z,15.20
2022-11-18T15:39:20.870Z,15.20
2022-11-18T15:41:47.786Z,15.10
2022-11-18T15:44:14.557Z,15.10
2022-11-18T15:46:41.536Z,15.10
2022-11-18T15:49:13.218Z,15.00
2022-11-18T15:51:40.312Z,15.00
2022-11-18T15:54:07.167Z,15.00
2022-11-18T15:56:34.429Z,14.90
2022-11-18T15:59:15.015Z,14.90
2022-11-18T16:01:44.663Z,14.70
2022-11-18T16:04:14.506Z,14.60
2022-11-18T16:06:44.725Z,14.50
2022-11-18T16:09:12.707Z,14.50
2022-11-18T16:11:58.078Z,14.50
2022-11-18T16:14:25.390Z,14.50
2022-11-18T16:16:54.638Z,14.40
2022-11-18T16:19:24.618Z,14.20
2022-11-18T16:21:54.154Z,14.30
2022-11-18T16:24:23.918Z,14.30
2022-11-18T16:26:51.401Z,14.30
2022-11-18T16:29:19.193Z,14.30
2022-11-18T16:31:52.399Z,14.20
2022-11-18T16:34:29.950Z,14.20
2022-11-18T16:36:58.130Z,14.10
2022-11-18T16:39:27.103Z,14.10
2022-11-18T16:41:59.454Z,14.10
2022-11-18T16:44:29.264Z,14.00
2022-11-18T16:46:57.603Z,14.00
2022-11-18T16:49:26.602Z,13.90
2022-11-18T16:51:55.117Z,13.70
2022-11-18T16:54:26.852Z,13.80
2022-11-18T16:56:55.946Z,13.80
2022-11-18T16:59:27.648Z,13.80
2022-11-18T17:01:56.763Z,13.80
2022-11-18T17:04:25.589Z,13.80
2022-11-18T17:06:52.881Z,13.70
2022-11-18T17:09:23.454Z,13.70
2022-11-18T17:11:52.018Z,13.70
2022-11-18T17:14:19.703Z,13.70
2022-11-18T17:16:46.664Z,13.60
2022-11-18T17:19:18.807Z,13.40
2022-11-18T17:21:46.870Z,13.20
2022-11-18T17:24:20.093Z,13.20
2022-11-18T17:26:49.250Z,13.30
2022-11-18T17:29:16.722Z,13.30
2022-11-18T17:31:44.822Z,13.40
2022-11-18T17:34:16.843Z,13.30
2022-11-18T17:36:43.981Z,13.20
2022-11-18T17:39:16.278Z,13.30
2022-11-18T17:42:01.972Z,13.30
2022-11-18T17:44:29.726Z,13.20
2022-11-18T17:46:56.588Z,12.90
2022-11-18T17:49:23.484Z,12.80
2022-11-18T17:51:53.828Z,12.90
2022-11-18T17:54:21.845Z,12.90
2022-11-18T17:56:52.285Z,12.90
2022-11-18T17:59:19.887Z,12.80
2022-11-18T18:01:46.940Z,12.60
2022-11-18T18:04:15.224Z,12.60
2022-11-18T18:06:42.235Z,12.70
2022-11-18T18:09:09.063Z,12.70
2022-11-18T18:11:35.938Z,12.70
2022-11-18T18:14:14.662Z,12.60
2022-11-18T18:16:49.499Z,12.60
2022-11-18T18:19:18.814Z,12.60
2022-11-18T18:21:46.899Z,12.50
2022-11-18T18:24:19.675Z,12.60
2022-11-18T18:26:47.274Z,12.50
2022-11-18T18:29:14.512Z,12.60
2022-11-18T18:31:41.366Z,12.50
2022-11-18T18:34:08.480Z,12.50
2022-11-18T18:36:35.612Z,12.60
2022-11-18T18:39:02.810Z,12.40
2022-11-18T18:41:30.340Z,12.40
2022-11-18T18:43:57.155Z,12.40
2022-11-18T18:46:32.360Z,12.50
2022-11-18T18:49:10.596Z,12.40
2022-11-18T18:51:39.510Z,12.30
2022-11-18T18:54:07.791Z,12.10
2022-11-18T18:56:34.819Z,12.10
2022-11-18T18:59:02.151Z,12.20
2022-11-18T19:01:29.502Z,12.10
2022-11-18T19:04:01.950Z,12.10
2022-11-18T19:09:19.328Z,12.10
2022-11-18T19:12:04.747Z,12.20
2022-11-18T19:14:33.607Z,12.30
2022-11-18T19:17:04.842Z,12.30
2022-11-18T19:19:55.002Z,12.40
2022-11-18T19:22:22.075Z,12.30
2022-11-18T19:24:50.585Z,12.30
2022-11-18T19:27:21.742Z,12.20
2022-11-18T19:29:48.572Z,12.00
2022-11-18T19:32:15.609Z,11.80
2022-11-18T19:34:42.450Z,11.80
2022-11-18T19:37:09.348Z,11.90
2022-11-18T19:39:37.920Z,11.90
2022-11-18T19:42:05.097Z,11.90
2022-11-18T19:44:31.993Z,11.90
2022-11-18T19:46:59.230Z,11.80
2022-11-18T19:49:26.791Z,11.80
2022-11-18T19:51:53.665Z,11.70
2022-11-18T19:54:20.805Z,11.70
2022-11-18T19:56:47.803Z,11.70
2022-11-18T19:59:14.715Z,11.70
2022-11-18T20:01:41.688Z,11.80
2022-11-18T20:04:08.782Z,11.80
2022-11-18T20:06:36.562Z,11.90
2022-11-18T20:09:06.974Z,12.00
2022-11-18T20:11:34.213Z,12.00
2022-11-18T20:14:01.128Z,12.00
2022-11-18T20:16:28.173Z,11.90
2022-11-18T20:18:59.997Z,11.70
2022-11-18T20:21:29.292Z,11.60
2022-11-18T20:24:01.274Z,11.60
2022-11-18T20:26:32.449Z,11.70
2022-11-18T20:28:59.910Z,11.70
2022-11-18T20:31:27.593Z,11.70
2022-11-18T20:33:56.094Z,11.70
2022-11-18T20:36:28.334Z,11.70
2022-11-18T20:38:57.479Z,11.80
2022-11-18T20:41:25.718Z,11.80
2022-11-18T20:43:53.214Z,11.60
2022-11-18T20:46:21.646Z,11.50
2022-11-18T20:48:49.580Z,11.60
2022-11-18T20:51:17.755Z,11.50
2022-11-18T20:53:45.094Z,11.50
2022-11-18T20:56:14.430Z,11.50
2022-11-18T20:58:41.863Z,11.30
2022-11-18T21:01:19.130Z,11.50
2022-11-18T21:03:54.283Z,11.70
2022-11-18T21:06:23.256Z,11.60
2022-11-18T21:08:55.778Z,11.60
2022-11-18T21:11:22.691Z,11.60
2022-11-18T21:14:08.760Z,11.70
2022-11-18T21:16:35.619Z,11.70
2022-11-18T21:19:02.479Z,11.60
2022-11-18T21:21:52.604Z,11.50
2022-11-18T21:24:27.977Z,11.50
2022-11-18T21:26:55.483Z,11.50
2022-11-18T21:29:24.891Z,11.60
2022-11-18T21:31:52.441Z,11.60
2022-11-18T21:34:19.682Z,11.70
2022-11-18T21:36:50.365Z,11.60
2022-11-18T21:39:21.953Z,11.50
2022-11-18T21:41:54.846Z,11.50
2022-11-18T21:44:23.246Z,11.50
2022-11-18T21:46:50.490Z,11.50
2022-11-18T21:49:17.660Z,11.50
2022-11-18T21:51:45.385Z,11.60
2022-11-18T21:54:12.922Z,11.60
2022-11-18T21:56:39.845Z,11.50
2022-11-18T21:59:07.716Z,11.50
2022-11-18T22:01:34.977Z,11.50
2022-11-18T22:04:04.849Z,11.50
2022-11-18T22:06:33.771Z,11.50
2022-11-18T22:09:02.552Z,11.50
2022-11-18T22:11:29.689Z,11.40
2022-11-18T22:13:57.267Z,11.40
2022-11-18T22:16:25.813Z,11.40
2022-11-18T22:18:59.152Z,11.50
2022-11-18T22:21:28.270Z,11.50
2022-11-18T22:24:00.225Z,11.60
2022-11-18T22:26:28.100Z,11.50
2022-11-18T22:28:57.317Z,11.60
2022-11-18T22:31:26.331Z,11.50
2022-11-18T22:33:53.995Z,11.30
2022-11-18T22:36:23.022Z,11.20
